Time;durP1;ratioP1;P1;durP2;ratioP2;P2;SDS_P1;SDS_P2;PMS_P1;PMS_P2;Temp;Humidity;BMP_temperature;BMP_pressure;BME280_temperature;BME280_humidity;BME280_pressure;Samples;Min_cycle;Max_cycle;Signal;HPM_P1;HPM_P2
2024/02/05 00:03:25;;;;;;;4.85;3.50;;;;;;;;;;10252581;28;20073;-63
2024/02/05 00:08:23;;;;;;;4.75;3.63;;;;;;;;;;10250467;28;20073;-63
2024/02/05 00:13:24;;;;;;;4.55;3.20;;;;;;;;;;10249804;28;20355;-63
2024/02/05 00:18:24;;;;;;;6.70;3.50;;;;;;;;;;10251515;28;20083;-62
2024/02/05 00:23:22;;;;;;;4.85;4.05;;;;;;;;;;10251808;28;20089;-62
2024/02/05 00:28:20;;;;;;;4.88;3.78;;;;;;;;;;10253875;28;20069;-63
2024/02/05 00:33:20;;;;;;;4.28;3.90;;;;;;;;;;10253317;28;20079;-63
2024/02/05 00:38:19;;;;;;;3.78;3.38;;;;;;;;;;10253137;28;20081;-63
2024/02/05 00:43:17;;;;;;;3.28;2.97;;;;;;;;;;10252227;28;20096;-63
2024/02/05 00:48:15;;;;;;;5.90;5.38;;;;;;;;;;10253185;28;20072;-63
2024/02/05 00:53:15;;;;;;;3.55;3.25;;;;;;;;;;10252017;28;20075;-63
2024/02/05 00:58:14;;;;;;;4.18;3.78;;;;;;;;;;10252050;28;20061;-63
2024/02/05 01:03:13;;;;;;;4.57;3.83;;;;;;;;;;10251239;28;20099;-63
2024/02/05 01:08:11;;;;;;;4.05;3.65;;;;;;;;;;10252600;28;20061;-63
2024/02/05 01:13:11;;;;;;;4.75;3.58;;;;;;;;;;10251147;28;20072;-63
2024/02/05 01:18:09;;;;;;;4.05;3.65;;;;;;;;;;10248978;28;20057;-63
2024/02/05 01:23:07;;;;;;;5.53;4.78;;;;;;;;;;10251031;28;20085;-63
2024/02/05 01:28:06;;;;;;;4.32;3.05;;;;;;;;;;10250037;28;20073;-63
2024/02/05 01:33:06;;;;;;;5.28;3.97;;;;;;;;;;10251393;28;20083;-63
2024/02/05 01:38:04;;;;;;;4.25;3.50;;;;;;;;;;10250521;28;20065;-62
2024/02/05 01:43:03;;;;;;;4.50;3.95;;;;;;;;;;10250815;28;20088;-62
2024/02/05 01:48:02;;;;;;;4.03;3.63;;;;;;;;;;10250538;28;20065;-62
2024/02/05 01:53:04;;;;;;;4.90;3.67;;;;;;;;;;10255359;28;20069;-63
2024/02/05 01:58:02;;;;;;;4.05;3.25;;;;;;;;;;10260471;28;20067;-63
2024/02/05 02:03:04;;;;;;;3.78;3.47;;;;;;;;;;10263015;28;20151;-64
2024/02/05 02:08:05;;;;;;;6.00;5.05;;;;;;;;;;10258038;28;20064;-63
2024/02/05 02:13:03;;;;;;;5.93;3.85;;;;;;;;;;10258694;28;20075;-63
2024/02/05 02:18:03;;;;;;;4.97;3.58;;;;;;;;;;10257134;28;20087;-63
2024/02/05 02:23:07;;;;;;;5.22;4.20;;;;;;;;;;10256495;28;20081;-63
2024/02/05 02:28:06;;;;;;;4.72;3.67;;;;;;;;;;10257673;28;20076;-62
2024/02/05 02:33:08;;;;;;;3.97;3.58;;;;;;;;;;10255393;28;20069;-62
2024/02/05 02:38:09;;;;;;;6.03;4.30;;;;;;;;;;10256239;28;20053;-63
2024/02/05 02:43:10;;;;;;;7.47;6.18;;;;;;;;;;10255157;28;20068;-62
2024/02/05 02:48:09;;;;;;;3.92;3.30;;;;;;;;;;10251074;28;20076;-62
2024/02/05 02:53:07;;;;;;;4.78;4.20;;;;;;;;;;10250995;28;20073;-62
2024/02/05 02:58:05;;;;;;;6.50;5.97;;;;;;;;;;10255655;28;20068;-62
2024/02/05 03:03:05;;;;;;;5.82;5.32;;;;;;;;;;10255211;28;20067;-63
2024/02/05 03:08:04;;;;;;;6.50;5.80;;;;;;;;;;10256050;28;20072;-63
2024/02/05 03:13:02;;;;;;;9.77;4.68;;;;;;;;;;10254151;28;20069;-63
2024/02/05 03:18:00;;;;;;;5.63;5.13;;;;;;;;;;10254648;28;20078;-63
2024/02/05 03:23:01;;;;;;;4.30;3.90;;;;;;;;;;10255982;28;20084;-63
2024/02/05 03:28:07;;;;;;;3.88;3.58;;;;;;;;;;10254937;28;20442;-62
2024/02/05 03:33:07;;;;;;;7.82;6.72;;;;;;;;;;10254048;28;20079;-63
2024/02/05 03:38:07;;;;;;;5.75;5.15;;;;;;;;;;10252698;28;20506;-63
2024/02/05 03:43:05;;;;;;;6.70;5.15;;;;;;;;;;10253689;28;20076;-63
2024/02/05 03:48:03;;;;;;;4.15;3.75;;;;;;;;;;10247679;28;20469;-63
2024/02/05 03:53:02;;;;;;;6.97;3.15;;;;;;;;;;10254045;28;20077;-63
2024/02/05 03:58:04;;;;;;;4.35;3.95;;;;;;;;;;10255450;28;20077;-63
2024/02/05 04:03:02;;;;;;;4.32;3.92;;;;;;;;;;10253848;28;20080;-62
2024/02/05 04:08:00;;;;;;;6.18;4.05;;;;;;;;;;10252997;28;20447;-63
2024/02/05 04:12:59;;;;;;;3.67;3.38;;;;;;;;;;10252014;28;20068;-62
2024/02/05 04:17:59;;;;;;;28.23;14.10;;;;;;;;;;10252654;28;20061;-63
2024/02/05 04:22:58;;;;;;;3.53;3.22;;;;;;;;;;10252217;28;20081;-66
2024/02/05 04:27:56;;;;;;;5.35;4.32;;;;;;;;;;10253338;28;20075;-63
2024/02/05 04:32:55;;;;;;;16.58;10.85;;;;;;;;;;10252611;28;20473;-62
2024/02/05 04:37:55;;;;;;;8.05;6.30;;;;;;;;;;10251672;28;20073;-63
2024/02/05 04:42:53;;;;;;;7.53;6.45;;;;;;;;;;10250769;28;20073;-63
2024/02/05 04:47:51;;;;;;;7.90;6.35;;;;;;;;;;10252018;28;20076;-63
2024/02/05 04:52:49;;;;;;;42.92;25.52;;;;;;;;;;10257320;28;20077;-62
2024/02/05 04:57:49;;;;;;;10.43;7.82;;;;;;;;;;10250705;28;20084;-61
2024/02/05 05:02:48;;;;;;;19.58;10.65;;;;;;;;;;10252153;28;20072;-63
2024/02/05 05:07:46;;;;;;;9.82;5.43;;;;;;;;;;10253174;28;20084;-62
2024/02/05 05:12:45;;;;;;;13.65;7.60;;;;;;;;;;10251543;28;20084;-63
2024/02/05 05:17:44;;;;;;;18.23;10.18;;;;;;;;;;10251847;28;20084;-63
2024/02/05 05:22:43;;;;;;;17.25;10.75;;;;;;;;;;10251156;28;20077;-63
2024/02/05 05:27:41;;;;;;;23.80;11.55;;;;;;;;;;10253242;28;20072;-64
2024/02/05 05:32:39;;;;;;;21.15;12.52;;;;;;;;;;10258218;28;20069;-63
2024/02/05 05:37:39;;;;;;;11.35;8.68;;;;;;;;;;10254942;28;20080;-62
2024/02/05 05:42:38;;;;;;;13.13;10.35;;;;;;;;;;10255741;28;20076;-64
2024/02/05 05:47:36;;;;;;;16.00;13.98;;;;;;;;;;10259240;28;20068;-63
2024/02/05 05:52:36;;;;;;;5.18;4.72;;;;;;;;;;10259637;28;20156;-63
2024/02/05 05:57:35;;;;;;;6.90;5.63;;;;;;;;;;10258530;28;20076;-63
2024/02/05 06:02:33;;;;;;;11.55;10.05;;;;;;;;;;10254532;28;20064;-63
2024/02/05 06:07:32;;;;;;;5.47;4.97;;;;;;;;;;10248513;28;20072;-63
2024/02/05 06:12:30;;;;;;;5.65;4.65;;;;;;;;;;10256109;28;20087;-62
2024/02/05 06:17:30;;;;;;;4.10;3.63;;;;;;;;;;10260268;28;20069;-63
2024/02/05 06:22:28;;;;;;;9.27;5.55;;;;;;;;;;10260791;28;20080;-63
2024/02/05 06:27:26;;;;;;;5.18;3.95;;;;;;;;;;10259068;28;20454;-63
2024/02/05 06:32:24;;;;;;;10.43;5.63;;;;;;;;;;10258804;28;20061;-63
2024/02/05 06:37:24;;;;;;;16.92;11.15;;;;;;;;;;10255708;28;20069;-63
2024/02/05 06:42:23;;;;;;;9.82;6.43;;;;;;;;;;10253209;28;20081;-63
2024/02/05 06:47:21;;;;;;;14.80;8.93;;;;;;;;;;10255717;28;20072;-63
2024/02/05 06:52:19;;;;;;;13.70;9.23;;;;;;;;;;10255274;28;20071;-62
2024/02/05 06:57:19;;;;;;;11.57;8.10;;;;;;;;;;10256886;28;20606;-63
2024/02/05 07:02:18;;;;;;;9.70;7.57;;;;;;;;;;10259439;28;20088;-64
2024/02/05 07:07:17;;;;;;;11.63;7.55;;;;;;;;;;10256170;28;20088;-63
2024/02/05 07:12:16;;;;;;;13.57;9.93;;;;;;;;;;10257094;28;20151;-63
2024/02/05 07:17:16;;;;;;;29.00;15.45;;;;;;;;;;10252911;28;20541;-62
2024/02/05 07:22:14;;;;;;;12.00;8.10;;;;;;;;;;10254500;28;20518;-63
2024/02/05 07:27:12;;;;;;;16.98;9.32;;;;;;;;;;10254479;28;20060;-63
2024/02/05 07:32:10;;;;;;;10.80;7.32;;;;;;;;;;10256153;28;20065;-63
2024/02/05 07:37:10;;;;;;;14.45;10.23;;;;;;;;;;10250384;28;20064;-62
2024/02/05 07:42:09;;;;;;;15.52;10.25;;;;;;;;;;10250633;28;20068;-62
2024/02/05 07:47:07;;;;;;;8.82;7.20;;;;;;;;;;10255263;28;20069;-63
2024/02/05 07:52:05;;;;;;;11.57;9.52;;;;;;;;;;10253656;28;20068;-62
2024/02/05 07:57:05;;;;;;;11.10;6.60;;;;;;;;;;10256819;28;20077;-64
2024/02/05 08:02:04;;;;;;;5.55;4.85;;;;;;;;;;10254851;28;20060;-63
2024/02/05 08:07:04;;;;;;;9.27;5.32;;;;;;;;;;10252151;28;20069;-63
2024/02/05 08:12:05;;;;;;;9.07;7.57;;;;;;;;;;10256856;28;20060;-63
2024/02/05 08:17:04;;;;;;;20.38;13.25;;;;;;;;;;10255552;28;20502;-64
2024/02/05 08:22:05;;;;;;;13.00;7.95;;;;;;;;;;10254803;28;20084;-63
2024/02/05 08:27:06;;;;;;;9.80;6.78;;;;;;;;;;10251181;28;20337;-62
2024/02/05 08:32:04;;;;;;;14.63;7.43;;;;;;;;;;10253103;28;20064;-63
2024/02/05 08:37:04;;;;;;;8.82;6.75;;;;;;;;;;10252167;28;20061;-63
2024/02/05 08:42:05;;;;;;;13.10;9.43;;;;;;;;;;10250582;28;20068;-63
2024/02/05 08:47:18;;;;;;;10.53;6.17;;;;;;;;;;10252620;28;20088;-64
2024/02/05 08:52:16;;;;;;;12.23;6.43;;;;;;;;;;10253960;28;20068;-63
2024/02/05 08:57:16;;;;;;;9.75;4.78;;;;;;;;;;10250778;28;20053;-63
2024/02/05 09:02:15;;;;;;;9.68;6.25;;;;;;;;;;10253734;28;20785;-64
2024/02/05 09:07:14;;;;;;;6.00;5.40;;;;;;;;;;10259291;28;20529;-66
2024/02/05 09:12:12;;;;;;;6.78;5.07;;;;;;;;;;10260799;28;20079;-63
2024/02/05 09:17:12;;;;;;;3.97;3.38;;;;;;;;;;10262195;28;20079;-63
2024/02/05 09:22:10;;;;;;;6.78;4.15;;;;;;;;;;10256660;28;20084;-67
2024/02/05 09:27:08;;;;;;;5.65;3.97;;;;;;;;;;10260831;28;20454;-67
2024/02/05 09:32:07;;;;;;;6.05;4.95;;;;;;;;;;10262202;28;20526;-66
2024/02/05 09:37:07;;;;;;;7.20;4.40;;;;;;;;;;10258707;28;20072;-67
2024/02/05 09:42:09;;;;;;;5.60;3.47;;;;;;;;;;10259053;28;20076;-67
2024/02/05 09:47:08;;;;;;;8.70;5.28;;;;;;;;;;10259302;28;20084;-68
2024/02/05 09:52:08;;;;;;;6.00;4.30;;;;;;;;;;10256750;28;20498;-67
2024/02/05 09:57:08;;;;;;;5.63;4.22;;;;;;;;;;10258415;28;20074;-67
2024/02/05 10:02:07;;;;;;;5.22;4.32;;;;;;;;;;10258331;28;20077;-68
2024/02/05 10:07:10;;;;;;;7.53;3.83;;;;;;;;;;10261926;28;20072;-67
2024/02/05 10:12:10;;;;;;;6.30;4.18;;;;;;;;;;10256005;28;20075;-67
2024/02/05 10:17:09;;;;;;;4.40;4.00;;;;;;;;;;10254458;28;20073;-66
2024/02/05 10:22:08;;;;;;;12.18;4.20;;;;;;;;;;10261127;28;20076;-67
2024/02/05 10:27:08;;;;;;;5.70;4.30;;;;;;;;;;10259865;28;20072;-66
2024/02/05 10:32:07;;;;;;;6.22;4.25;;;;;;;;;;10257077;28;20162;-66
2024/02/05 10:37:08;;;;;;;4.43;3.58;;;;;;;;;;10255912;28;20486;-67
2024/02/05 10:42:09;;;;;;;5.78;4.07;;;;;;;;;;10261984;28;20071;-67
2024/02/05 10:47:07;;;;;;;9.63;4.40;;;;;;;;;;10259898;28;20085;-66
2024/02/05 10:52:06;;;;;;;12.00;5.95;;;;;;;;;;10257376;28;20073;-67
2024/02/05 10:57:12;;;;;;;4.22;3.08;;;;;;;;;;10253852;28;20069;-66
2024/02/05 11:02:12;;;;;;;6.60;4.43;;;;;;;;;;10255096;28;20076;-67
2024/02/05 11:07:13;;;;;;;6.10;4.25;;;;;;;;;;10252926;28;20076;-67
2024/02/05 11:12:13;;;;;;;6.15;4.60;;;;;;;;;;10256518;28;20064;-67
2024/02/05 11:17:12;;;;;;;6.68;4.63;;;;;;;;;;10258910;28;20060;-67
2024/02/05 11:22:10;;;;;;;10.05;9.02;;;;;;;;;;10256458;28;20084;-67
2024/02/05 11:27:11;;;;;;;7.68;4.53;;;;;;;;;;10256096;28;20073;-66
2024/02/05 11:32:10;;;;;;;5.50;4.15;;;;;;;;;;10255830;28;20061;-66
2024/02/05 11:37:08;;;;;;;9.73;3.38;;;;;;;;;;10255574;28;20064;-66
2024/02/05 11:42:08;;;;;;;4.60;3.55;;;;;;;;;;10254106;28;20068;-66
2024/02/05 11:47:06;;;;;;;4.25;2.67;;;;;;;;;;10253282;28;20117;-66
2024/02/05 11:52:06;;;;;;;4.88;2.90;;;;;;;;;;10259593;28;20068;-66
2024/02/05 11:57:04;;;;;;;5.50;2.72;;;;;;;;;;10258416;28;20060;-67
2024/02/05 12:02:03;;;;;;;3.63;3.00;;;;;;;;;;10255014;28;20422;-65
2024/02/05 12:07:02;;;;;;;3.70;2.65;;;;;;;;;;10255812;28;20072;-66
2024/02/05 12:12:03;;;;;;;4.40;2.63;;;;;;;;;;10254153;28;20065;-66
2024/02/05 12:17:09;;;;;;;4.35;3.28;;;;;;;;;;10255870;28;20080;-66
2024/02/05 12:22:08;;;;;;;7.72;2.90;;;;;;;;;;10255130;28;20077;-67
2024/02/05 12:27:08;;;;;;;5.97;2.47;;;;;;;;;;10253753;28;20069;-66
2024/02/05 12:32:07;;;;;;;4.25;3.05;;;;;;;;;;10253289;28;20466;-67
2024/02/05 12:37:06;;;;;;;3.88;2.70;;;;;;;;;;10254228;28;20072;-66
2024/02/05 12:42:05;;;;;;;5.53;4.35;;;;;;;;;;10252087;28;20507;-67
2024/02/05 12:47:05;;;;;;;4.28;2.72;;;;;;;;;;10253228;28;20479;-67
2024/02/05 12:52:04;;;;;;;6.60;3.17;;;;;;;;;;10249999;28;20072;-67
2024/02/05 12:57:02;;;;;;;5.47;2.67;;;;;;;;;;10254795;28;20076;-66
2024/02/05 13:02:01;;;;;;;9.13;5.70;;;;;;;;;;10254512;28;20069;-66
2024/02/05 13:07:04;;;;;;;4.43;2.60;;;;;;;;;;10252592;28;20057;-67
2024/02/05 13:12:09;;;;;;;2.67;2.47;;;;;;;;;;10253812;28;20068;-66
2024/02/05 13:17:07;;;;;;;4.68;3.47;;;;;;;;;;10252764;28;20065;-66
2024/02/05 13:22:07;;;;;;;7.07;3.22;;;;;;;;;;10253024;28;20103;-66
2024/02/05 13:27:06;;;;;;;4.43;3.55;;;;;;;;;;10254318;28;20061;-66
2024/02/05 13:32:05;;;;;;;6.13;5.22;;;;;;;;;;10252519;28;20077;-65
2024/02/05 13:37:03;;;;;;;6.88;3.63;;;;;;;;;;10256394;28;20077;-66
2024/02/05 13:42:03;;;;;;;7.70;4.43;;;;;;;;;;10254246;28;20450;-66
2024/02/05 13:47:03;;;;;;;4.55;4.10;;;;;;;;;;10255704;28;20071;-67
2024/02/05 13:52:01;;;;;;;7.03;4.28;;;;;;;;;;10258601;28;20068;-66
2024/02/05 13:57:00;;;;;;;14.93;4.97;;;;;;;;;;10265971;28;20648;-67
2024/02/05 14:02:02;;;;;;;6.70;3.88;;;;;;;;;;10259330;28;20068;-66
2024/02/05 14:07:00;;;;;;;6.72;5.05;;;;;;;;;;10258455;28;20081;-66
2024/02/05 14:11:58;;;;;;;16.75;10.48;;;;;;;;;;10257582;28;20072;-67
2024/02/05 14:16:57;;;;;;;8.75;5.22;;;;;;;;;;10251842;28;20475;-66
2024/02/05 14:21:57;;;;;;;12.15;9.45;;;;;;;;;;10251726;28;20077;-66
2024/02/05 14:26:55;;;;;;;6.88;4.75;;;;;;;;;;10252771;28;20064;-66
2024/02/05 14:31:54;;;;;;;11.32;5.90;;;;;;;;;;10260596;28;20069;-66
2024/02/05 14:36:52;;;;;;;13.80;5.72;;;;;;;;;;10258531;28;20073;-65
2024/02/05 14:41:52;;;;;;;37.58;24.10;;;;;;;;;;10256639;28;20514;-62
2024/02/05 14:46:50;;;;;;;15.50;10.32;;;;;;;;;;10256062;28;20065;-67
2024/02/05 14:51:49;;;;;;;13.23;10.25;;;;;;;;;;10256787;28;20478;-66
2024/02/05 14:56:47;;;;;;;12.90;7.63;;;;;;;;;;10253915;28;20072;-65
2024/02/05 15:01:47;;;;;;;12.43;8.52;;;;;;;;;;10252480;28;20077;-65
2024/02/05 15:06:46;;;;;;;17.05;8.35;;;;;;;;;;10250248;28;20586;-65
2024/02/05 15:11:45;;;;;;;17.15;6.35;;;;;;;;;;10250278;28;20110;-65
2024/02/05 15:16:44;;;;;;;18.50;6.50;;;;;;;;;;10252487;28;20107;-66
2024/02/05 15:21:43;;;;;;;19.60;6.53;;;;;;;;;;10253568;28;20091;-64
2024/02/05 15:26:45;;;;;;;14.48;9.35;;;;;;;;;;10256510;28;20060;-66
2024/02/05 15:31:44;;;;;;;22.70;16.05;;;;;;;;;;10260439;28;20453;-66
2024/02/05 15:36:48;;;;;;;11.10;7.15;;;;;;;;;;10257829;28;20076;-66
2024/02/05 15:41:46;;;;;;;21.63;15.52;;;;;;;;;;10258362;28;20073;-65
2024/02/05 15:46:45;;;;;;;31.33;21.88;;;;;;;;;;10257855;28;20080;-65
2024/02/05 15:51:43;;;;;;;18.70;14.73;;;;;;;;;;10256122;28;20083;-65
2024/02/05 15:56:43;;;;;;;8.02;6.65;;;;;;;;;;10255318;28;20068;-67
2024/02/05 16:01:45;;;;;;;11.55;7.32;;;;;;;;;;10254313;28;20099;-67
2024/02/05 16:06:43;;;;;;;11.18;7.55;;;;;;;;;;10253833;28;20064;-65
2024/02/05 16:11:43;;;;;;;12.57;8.00;;;;;;;;;;10254918;28;20083;-67
2024/02/05 16:16:42;;;;;;;10.07;7.13;;;;;;;;;;10250670;28;20079;-63
2024/02/05 16:21:41;;;;;;;11.70;7.97;;;;;;;;;;10247489;28;20395;-66
2024/02/05 16:26:39;;;;;;;16.98;12.15;;;;;;;;;;10258200;28;20636;-67
2024/02/05 16:31:39;;;;;;;15.65;9.95;;;;;;;;;;10258186;28;20517;-66
2024/02/05 16:36:37;;;;;;;14.13;10.38;;;;;;;;;;10260799;28;20073;-66
2024/02/05 16:41:36;;;;;;;9.85;7.45;;;;;;;;;;10259056;28;20080;-65
2024/02/05 16:46:34;;;;;;;10.32;8.18;;;;;;;;;;10252849;28;20076;-67
2024/02/05 16:51:34;;;;;;;12.65;9.30;;;;;;;;;;10251209;28;20084;-66
2024/02/05 16:56:32;;;;;;;9.75;7.22;;;;;;;;;;10251727;28;20084;-67
2024/02/05 17:01:31;;;;;;;8.93;7.10;;;;;;;;;;10250956;28;20322;-66
2024/02/05 17:06:29;;;;;;;11.32;7.47;;;;;;;;;;10253419;28;20475;-66
2024/02/05 17:11:29;;;;;;;11.95;6.80;;;;;;;;;;10254610;28;20509;-67
2024/02/05 17:16:27;;;;;;;10.80;9.43;;;;;;;;;;10252526;28;20072;-66
2024/02/05 17:21:40;;;;;;;9.02;8.02;;;;;;;;;;10249839;28;20100;-66
2024/02/05 17:26:39;;;;;;;11.95;7.65;;;;;;;;;;10259403;28;20068;-65
2024/02/05 17:31:38;;;;;;;10.05;7.93;;;;;;;;;;10262635;28;20076;-66
2024/02/05 17:36:36;;;;;;;8.15;7.25;;;;;;;;;;10259010;28;20081;-65
2024/02/05 17:41:34;;;;;;;9.90;8.50;;;;;;;;;;10263911;28;20076;-66
2024/02/05 17:46:35;;;;;;;12.85;6.47;;;;;;;;;;10256894;28;20084;-68
2024/02/05 17:51:33;;;;;;;10.70;8.00;;;;;;;;;;10258926;28;20076;-66
2024/02/05 17:56:31;;;;;;;13.50;8.75;;;;;;;;;;10258480;28;20067;-65
2024/02/05 18:01:30;;;;;;;14.55;11.05;;;;;;;;;;10256416;28;20076;-66
2024/02/05 18:06:29;;;;;;;11.27;7.15;;;;;;;;;;10249136;28;20064;-66
2024/02/05 18:11:28;;;;;;;14.93;7.80;;;;;;;;;;10252123;28;20076;-66
2024/02/05 18:16:26;;;;;;;11.75;9.48;;;;;;;;;;10256676;28;20079;-66
2024/02/05 18:21:24;;;;;;;11.98;8.63;;;;;;;;;;10259558;28;20741;-66
2024/02/05 18:26:25;;;;;;;11.30;8.27;;;;;;;;;;10260168;28;20518;-65
2024/02/05 18:31:23;;;;;;;12.20;8.40;;;;;;;;;;10259178;28;20166;-65
2024/02/05 18:36:23;;;;;;;11.57;7.55;;;;;;;;;;10255812;28;20515;-65
2024/02/05 18:41:22;;;;;;;11.13;7.18;;;;;;;;;;10255766;28;20513;-66
2024/02/05 18:46:22;;;;;;;10.68;6.93;;;;;;;;;;10260111;28;20072;-66
2024/02/05 18:51:22;;;;;;;11.27;9.15;;;;;;;;;;10255084;28;20077;-67
2024/02/05 18:56:21;;;;;;;14.52;6.20;;;;;;;;;;10256304;28;20377;-64
2024/02/05 19:01:19;;;;;;;7.72;6.43;;;;;;;;;;10256758;28;20069;-64
2024/02/05 19:06:19;;;;;;;7.85;6.60;;;;;;;;;;10260499;28;20092;-66
2024/02/05 19:11:17;;;;;;;7.25;6.25;;;;;;;;;;10254498;28;20877;-66
2024/02/05 19:16:16;;;;;;;9.43;7.47;;;;;;;;;;10256825;28;20073;-65
2024/02/05 19:21:14;;;;;;;12.90;6.68;;;;;;;;;;10254977;28;20091;-65
2024/02/05 19:26:14;;;;;;;14.00;10.40;;;;;;;;;;10256481;28;20080;-65
2024/02/05 19:31:12;;;;;;;12.80;10.13;;;;;;;;;;10259197;28;20068;-65
2024/02/05 19:36:11;;;;;;;13.50;8.57;;;;;;;;;;10254001;28;20067;-67
2024/02/05 19:41:09;;;;;;;9.85;7.78;;;;;;;;;;10253513;28;20073;-67
2024/02/05 19:46:09;;;;;;;9.90;8.05;;;;;;;;;;10253086;28;20080;-67
2024/02/05 19:51:07;;;;;;;10.52;8.32;;;;;;;;;;10255697;28;20079;-66
2024/02/05 19:56:05;;;;;;;16.88;10.32;;;;;;;;;;10254664;28;20081;-67
2024/02/05 20:01:04;;;;;;;13.43;10.15;;;;;;;;;;10253246;28;20103;-66
2024/02/05 20:06:04;;;;;;;22.63;17.48;;;;;;;;;;10255307;28;20076;-66
2024/02/05 20:11:06;;;;;;;11.02;9.30;;;;;;;;;;10254637;28;20635;-67
2024/02/05 20:16:05;;;;;;;8.20;6.28;;;;;;;;;;10256497;28;20076;-65
2024/02/05 20:21:05;;;;;;;8.82;6.35;;;;;;;;;;10252772;28;20080;-66
2024/02/05 20:26:04;;;;;;;7.25;6.10;;;;;;;;;;10253318;28;20068;-66
2024/02/05 20:31:02;;;;;;;6.85;6.15;;;;;;;;;;10259855;28;20080;-67
2024/02/05 20:36:00;;;;;;;7.47;6.70;;;;;;;;;;10253707;28;20106;-67
2024/02/05 20:41:00;;;;;;;21.85;12.65;;;;;;;;;;10252028;28;20089;-66
2024/02/05 20:45:58;;;;;;;42.28;21.17;;;;;;;;;;10252466;28;20065;-67
2024/02/05 20:50:57;;;;;;;45.25;21.77;;;;;;;;;;10251535;28;20533;-67
2024/02/05 20:55:55;;;;;;;35.10;19.00;;;;;;;;;;10254357;28;20084;-66
2024/02/05 21:00:55;;;;;;;31.23;18.00;;;;;;;;;;10250130;28;20745;-66
2024/02/05 21:05:53;;;;;;;23.88;13.57;;;;;;;;;;10254808;28;20072;-67
2024/02/05 21:10:51;;;;;;;25.00;14.60;;;;;;;;;;10255707;28;20073;-67
2024/02/05 21:15:50;;;;;;;40.47;17.42;;;;;;;;;;10252900;28;20068;-66
2024/02/05 21:20:50;;;;;;;20.90;10.32;;;;;;;;;;10252895;28;20496;-65
2024/02/05 21:25:48;;;;;;;10.65;7.93;;;;;;;;;;10252650;28;20088;-66
2024/02/05 21:30:46;;;;;;;6.97;4.93;;;;;;;;;;10248740;28;20088;-66
2024/02/05 21:35:44;;;;;;;7.25;5.82;;;;;;;;;;10246171;28;20065;-65
2024/02/05 21:40:44;;;;;;;11.38;8.00;;;;;;;;;;10248156;28;20065;-66
2024/02/05 21:45:42;;;;;;;15.05;9.13;;;;;;;;;;10248222;28;20072;-65
2024/02/05 21:50:41;;;;;;;14.25;9.23;;;;;;;;;;10246975;28;20073;-66
2024/02/05 21:55:39;;;;;;;11.85;8.63;;;;;;;;;;10258171;28;20060;-66
2024/02/05 22:00:39;;;;;;;16.70;10.15;;;;;;;;;;10248334;28;20081;-66
2024/02/05 22:05:39;;;;;;;16.48;11.27;;;;;;;;;;10252204;28;20079;-66
2024/02/05 22:10:37;;;;;;;15.15;9.48;;;;;;;;;;10255508;28;20076;-65
2024/02/05 22:15:35;;;;;;;11.90;7.47;;;;;;;;;;10257644;28;20115;-66
2024/02/05 22:20:35;;;;;;;10.25;7.00;;;;;;;;;;10258781;28;20545;-66
2024/02/05 22:25:33;;;;;;;10.80;8.90;;;;;;;;;;10258389;28;20080;-65
2024/02/05 22:30:33;;;;;;;7.80;7.00;;;;;;;;;;10254464;28;20092;-66
2024/02/05 22:35:33;;;;;;;6.25;5.57;;;;;;;;;;10246329;28;20079;-66
2024/02/05 22:40:33;;;;;;;9.57;5.75;;;;;;;;;;10248072;28;20084;-67
2024/02/05 22:45:31;;;;;;;10.45;7.45;;;;;;;;;;10253796;28;20088;-66
2024/02/05 22:50:30;;;;;;;8.43;5.72;;;;;;;;;;10255579;28;20065;-66
2024/02/05 22:55:28;;;;;;;9.98;5.88;;;;;;;;;;10253768;28;20075;-65
2024/02/05 23:00:28;;;;;;;8.38;5.78;;;;;;;;;;10250986;28;20114;-66
2024/02/05 23:05:26;;;;;;;7.93;5.13;;;;;;;;;;10255692;28;20189;-65
2024/02/05 23:10:26;;;;;;;6.30;5.63;;;;;;;;;;10254783;28;20089;-66
2024/02/05 23:15:24;;;;;;;7.43;5.32;;;;;;;;;;10254813;28;20076;-66
2024/02/05 23:20:23;;;;;;;10.43;6.88;;;;;;;;;;10253473;28;20083;-66
2024/02/05 23:25:22;;;;;;;9.32;6.97;;;;;;;;;;10257709;28;20494;-66
2024/02/05 23:30:20;;;;;;;8.23;6.30;;;;;;;;;;10255661;28;20073;-66
2024/02/05 23:35:19;;;;;;;5.95;5.35;;;;;;;;;;10254775;28;20092;-67
2024/02/05 23:40:19;;;;;;;8.98;7.10;;;;;;;;;;10255649;28;20072;-67
2024/02/05 23:45:17;;;;;;;7.78;5.97;;;;;;;;;;10254489;28;20073;-67
2024/02/05 23:50:17;;;;;;;8.15;6.68;;;;;;;;;;10249253;28;20064;-67
2024/02/05 23:55:15;;;;;;;6.03;5.38;;;;;;;;;;10255054;28;20499;-67
